• Join FlightAware (Why Join?)
  • Login
  • US Flag 
06:13AM EST


 

Airport Tracker/Info


-or-


 

Live Flight TrackerFlight Track Log ✈ EJA396 ✈ 01-Oct-2013 ✈ KVNY - KPBI

Flight Track Log - Related Links

Times and Time Zones

All times are in EDT time to prevent confusion due to time zone crossing. See the EJA396 flight status page for this flight to view local times or setup timezone preferences in your user account.

Time Position Orientation Groundspeed Altitude Reporting Facility
EDT Latitude Longitude Course Direction KTS MPH feet Rate Location/Type
02:22AM 34.1667 -118.4667 92° East 211 243 2,100  Level Southern California TRACON
02:24AM 34.2500 -118.3911 37° Northeast 277 319 8,800 3,300 Climbing Los Angeles Center
02:25AM 34.3317 -118.3683 13° North 295 339 12,100 3,120 Climbing Los Angeles Center
02:27AM 34.4269 -118.3197 23° Northeast 321 369 15,700 2,460 Climbing Los Angeles Center
02:28AM 34.1780 -117.6275 92° East  Level Estimated
02:28AM 34.4331 -118.2072 86° East 344 396 17,600  Level Los Angeles Center
02:29AM 34.4136 -118.0914 101° East 375 432 19,000 1,380 Climbing Los Angeles Center
02:30AM 34.3917 -117.9597 101° East 398 458 20,400 960 Climbing Los Angeles Center
02:31AM 34.3661 -117.8067 101° East 416 479 21,000 600 Climbing Los Angeles Center
02:32AM 34.3294 -117.6692 108° East 426 490 21,700 1,320 Climbing Los Angeles Center
02:33AM 34.2758 -117.5464 118° Southeast 414 476 23,700 1,980 Climbing Los Angeles Center
02:34AM 34.2206 -117.4181 117° Southeast 423 487 25,700 1,980 Climbing Los Angeles Center
02:35AM 34.1889 -117.2819 106° East 424 488 27,700 2,040 Climbing Los Angeles Center
02:36AM 34.1639 -117.1336 101° East 425 489 29,900 2,040 Climbing Los Angeles Center
02:37AM 34.1397 -116.9975 102° East 418 481 31,800 1,920 Climbing Los Angeles Center
02:38AM 34.1181 -116.8617 101° East 405 466 33,800 1,800 Climbing Los Angeles Center
02:39AM 34.0953 -116.7317 102° East 398 458 35,500 1,320 Climbing Los Angeles Center
02:40AM 34.0731 -116.6006 102° East 399 459 36,500 960 Climbing Los Angeles Center
02:41AM 34.0497 -116.4650 102° East 412 474 37,500 900 Climbing Los Angeles Center
02:42AM 34.0261 -116.3292 102° East 414 476 38,400 720 Climbing Los Angeles Center
02:43AM 34.0011 -116.1908 102° East 421 484 39,000 540 Climbing Los Angeles Center
02:44AM 33.9761 -116.0492 102° East 431 496 39,600 480 Climbing Los Angeles Center
02:45AM 33.9500 -115.9036 102° East 442 509 40,000 480 Climbing Los Angeles Center
02:46AM 33.9236 -115.7556 102° East 451 519 40,600 480 Climbing Los Angeles Center
02:47AM 33.8969 -115.6086 102° East 450 518 41,000 180 Climbing Los Angeles Center
02:48AM 33.8686 -115.4578 103° East 459 528 41,000  Level Los Angeles Center
02:49AM 33.8403 -115.3044 103° East 468 539 41,000  Level Los Angeles Center
02:50AM 33.8122 -115.1489 102° East 474 545 41,000  Level Los Angeles Center
02:51AM 33.7825 -114.9886 103° East 484 557 41,000  Level Los Angeles Center
02:52AM 33.7517 -114.8283 103° East 490 564 41,000  Level Los Angeles Center
02:53AM 33.7211 -114.6658 103° East 495 570 41,000  Level Los Angeles Center
02:54AM 33.6900 -114.5017 103° East 516 594 41,000  Level Los Angeles Center
02:55AM 33.6675 -114.3661 101° East 501 577 41,000  Level Albuquerque Center
02:56AM 33.6364 -114.2103 103° East 504 580 41,000  Level Albuquerque Center
02:57AM 33.6061 -114.0481 103° East 502 578 41,000  Level Albuquerque Center
02:58AM 33.5731 -113.8783 103° East 500 575 41,000  Level Albuquerque Center
02:59AM 33.5414 -113.7194 103° East 494 568 41,000  Level Albuquerque Center
03:00AM 33.5100 -113.5625 103° East 487 560 41,000  Level Albuquerque Center
03:01AM 33.4778 -113.4058 104° East 484 557 41,000  Level Albuquerque Center
03:02AM 33.4467 -113.2492 103° East 483 556 41,000  Level Albuquerque Center
03:03AM 33.4144 -113.0942 104° East 481 554 41,000  Level Albuquerque Center
03:04AM 33.3831 -112.9406 104° East 477 549 41,000  Level Albuquerque Center
03:05AM 33.3514 -112.7858 104° East 477 549 41,000  Level Albuquerque Center
03:06AM 33.3192 -112.6300 104° East 479 551 41,000  Level Albuquerque Center
03:07AM 33.2844 -112.4644 104° East 473 544 41,000  Level Albuquerque Center
03:08AM 33.2519 -112.3122 104° East 476 548 41,000  Level Albuquerque Center
03:09AM 33.2214 -112.1597 103° East 476 548 41,000  Level Albuquerque Center
03:10AM 33.1889 -112.0081 104° East 475 547 41,000  Level Albuquerque Center
03:11AM 33.1556 -111.8569 105° East 475 547 41,000  Level Albuquerque Center
03:12AM 33.1225 -111.7044 104° East 478 550 41,000  Level Albuquerque Center
03:13AM 33.0903 -111.5531 104° East 476 548 41,000  Level Albuquerque Center
03:14AM 33.0581 -111.4014 104° East 476 548 41,000  Level Albuquerque Center
03:15AM 33.0247 -111.2494 105° East 476 548 41,000  Level Albuquerque Center
03:16AM 32.9911 -111.0969 105° East 476 548 41,000  Level Albuquerque Center
03:17AM 32.9569 -110.9458 105° East 476 548 41,000  Level Albuquerque Center
03:18AM 32.9228 -110.7953 105° East 475 547 41,000  Level Albuquerque Center
03:19AM 32.8864 -110.6367 105° East 475 547 41,000  Level Albuquerque Center
03:20AM 32.8536 -110.4839 104° East 477 549 41,000  Level Albuquerque Center
03:21AM 32.8186 -110.3325 105° East 478 550 41,000  Level Albuquerque Center
03:22AM 32.7842 -110.1806 105° East 477 549 41,000  Level Albuquerque Center
03:23AM 32.7481 -110.0297 106° East 477 549 41,000  Level Albuquerque Center
03:24AM 32.7136 -109.8800 105° East 474 545 41,000  Level Albuquerque Center
03:25AM 32.6778 -109.7297 106° East 475 547 41,000  Level Albuquerque Center
03:26AM 32.6400 -109.5772 106° East 482 555 41,000  Level Albuquerque Center
03:27AM 32.6050 -109.4278 105° East 477 549 41,000  Level Albuquerque Center
03:28AM 32.5694 -109.2781 106° East 476 548 41,000  Level Albuquerque Center
03:29AM 32.5333 -109.1281 106° East 477 549 41,000  Level Albuquerque Center
03:30AM 32.4975 -108.9781 106° East 478 550 41,000  Level Albuquerque Center
03:31AM 32.4617 -108.8283 106° East 479 551 41,000  Level Albuquerque Center
03:32AM 32.4250 -108.6789 106° East 477 549 41,000  Level Albuquerque Center
03:33AM 32.3814 -108.4989 106° East 477 549 41,000  Level Albuquerque Center
03:34AM 32.3475 -108.3575 106° East 476 548 41,000  Level Albuquerque Center
03:35AM 32.3094 -108.2081 107° East 478 550 41,000  Level Albuquerque Center
03:36AM 32.2719 -108.0575 106° East 478 550 41,000  Level Albuquerque Center
03:37AM 32.2353 -107.9083 106° East 477 549 41,000  Level Albuquerque Center
03:38AM 32.1975 -107.7594 107° East 476 548 41,000  Level Albuquerque Center
03:39AM 32.1600 -107.6108 107° East 477 549 41,000  Level Albuquerque Center
03:40AM 32.1228 -107.4625 106° East 477 549 41,000  Level Albuquerque Center
03:41AM 32.0850 -107.3131 107° East 479 551 41,000  Level Albuquerque Center
03:42AM 32.0472 -107.1653 107° East 478 550 41,000  Level Albuquerque Center
03:43AM 32.0106 -107.0164 106° East 477 549 41,000  Level Albuquerque Center
03:44AM 31.9717 -106.8686 107° East 477 549 41,000  Level Albuquerque Center
03:45AM 31.9322 -106.7217 108° East 475 547 41,000  Level Albuquerque Center
03:46AM 31.8867 -106.5536 108° East 478 550 41,000  Level Albuquerque Center
03:47AM 31.8492 -106.4006 106° East 483 556 41,000  Level Albuquerque Center
03:48AM 31.8094 -106.2508 107° East 483 556 41,000  Level Albuquerque Center
03:49AM 31.7714 -106.1008 107° East 481 554 41,000  Level Albuquerque Center
03:50AM 31.7333 -105.9514 107° East 477 549 41,000  Level Albuquerque Center
03:51AM 31.7053 -105.7997 102° East 476 548 41,000  Level Albuquerque Center
03:52AM 31.6919 -105.6453 96° East 475 547 41,000  Level Albuquerque Center
03:53AM 31.6781 -105.4900 96° East 476 548 41,000  Level Albuquerque Center
03:54AM 31.6644 -105.3350 96° East 477 549 41,000  Level Albuquerque Center
03:55AM 31.6503 -105.1789 96° East 479 551 41,000  Level Albuquerque Center
03:56AM 31.6350 -105.0236 97° East 478 550 41,000  Level Albuquerque Center
03:57AM 31.6200 -104.8703 97° East 475 547 41,000  Level Albuquerque Center
03:58AM 31.6053 -104.7153 96° East 475 547 41,000  Level Albuquerque Center
03:59AM 31.5903 -104.5611 96° East 475 547 41,000  Level Albuquerque Center
04:00AM 31.5750 -104.4069 97° East 475 547 41,000  Level Albuquerque Center
04:01AM 31.5594 -104.2519 97° East 477 549 41,000  Level Albuquerque Center
04:02AM 31.5436 -104.0981 97° East 476 548 41,000  Level Albuquerque Center
04:03AM 31.5278 -103.9450 97° East 473 544 41,000  Level Albuquerque Center
04:04AM 31.5122 -103.7914 97° East 474 545 41,000  Level Albuquerque Center
04:05AM 31.4953 -103.6453 98° East 473 544 41,000  Level Albuquerque Center
04:06AM 31.4783 -103.4933 97° East 471 542 41,000  Level Albuquerque Center
04:07AM 31.4589 -103.3439 99° East 468 539 41,000  Level Albuquerque Center
04:08AM 31.4414 -103.1925 98° East 468 539 41,000  Level Albuquerque Center
04:09AM 31.4256 -103.0419 97° East 468 539 41,000  Level Albuquerque Center
04:10AM 31.4089 -102.8914 97° East 467 537 41,000  Level Albuquerque Center
04:11AM 31.3925 -102.7422 97° East 466 536 41,000  Level Albuquerque Center
04:12AM 31.3756 -102.5914 97° East 466 536 41,000  Level Albuquerque Center
04:13AM 31.3578 -102.4369 98° East 483 556 41,000  Level Albuquerque Center
04:14AM 31.3403 -102.2856 98° East 480 552 41,000  Level Albuquerque Center
04:15AM 31.3214 -102.1356 98° East 471 542 41,000  Level Albuquerque Center
04:16AM 31.3114 -102.0261 96° East 470 541 41,000  Level Houston Center
04:17AM 31.2925 -101.8778 98° East 464 534 41,000  Level Houston Center
04:18AM 31.2739 -101.7281 98° East 465 535 41,000  Level Houston Center
04:19AM 31.2550 -101.5794 98° East 464 534 41,000  Level Houston Center
04:20AM 31.2353 -101.4294 99° East 465 535 41,000  Level Houston Center
04:21AM 31.2161 -101.2803 99° East 466 536 41,000  Level Houston Center
04:22AM 31.1978 -101.1278 98° East 465 535 41,000  Level Houston Center
04:23AM 31.1792 -100.9786 98° East 464 534 41,000  Level Houston Center
04:24AM 31.1592 -100.8297 99° East 465 535 41,000  Level Houston Center
04:25AM 31.1400 -100.6806 98° East 465 535 41,000  Level Houston Center
04:26AM 31.1211 -100.5303 98° East 467 537 41,000  Level Houston Center
04:27AM 31.1006 -100.3819 99° East 463 533 41,000  Level Houston Center
04:28AM 31.0811 -100.2331 99° East 463 533 41,000  Level Houston Center
04:29AM 31.0617 -100.0856 99° East 461 531 41,000  Level Houston Center
04:30AM 31.0417 -99.9392 99° East 457 526 41,000  Level Houston Center
04:31AM 31.0211 -99.7903 99° East 461 531 41,000  Level Houston Center
04:32AM 30.9997 -99.6422 100° East 463 533 41,000  Level Houston Center
04:33AM 30.9797 -99.4939 99° East 461 531 41,000  Level Houston Center
04:34AM 30.9575 -99.3444 100° East 467 537 41,000  Level Houston Center
04:35AM 30.9367 -99.1972 99° East 463 533 41,000  Level Houston Center
04:36AM 30.9156 -99.0519 100° East 463 533 41,000  Level Houston Center
04:37AM 30.8942 -98.9028 99° East 465 535 41,000  Level Houston Center
04:38AM 30.8711 -98.7556 100° East 460 529 41,000  Level Houston Center
04:39AM 30.8500 -98.6050 99° East 465 535 41,000  Level Houston Center
04:40AM 30.8283 -98.4581 100° East 459 528 41,000  Level Houston Center
04:41AM 30.8064 -98.3100 100° East 461 531 41,000  Level Houston Center
04:42AM 30.7839 -98.1619 100° East 462 532 41,000  Level Houston Center
04:43AM 30.7600 -98.0133 101° East 464 534 41,000  Level Houston Center
04:44AM 30.7381 -97.8667 100° East 460 529 41,000  Level Houston Center
04:45AM 30.7144 -97.7194 101° East 462 532 41,000  Level Houston Center
04:46AM 30.6917 -97.5719 100° East 461 531 41,000  Level Houston Center
04:47AM 30.6675 -97.4256 101° East 462 532 41,000  Level Houston Center
04:48AM 30.6450 -97.2778 100° East 466 536 41,000  Level Houston Center
04:49AM 30.6225 -97.1311 100° East 463 533 41,000  Level Houston Center
04:50AM 30.5989 -96.9844 101° East 462 532 41,000  Level Houston Center
04:51AM 30.5753 -96.8372 101° East 462 532 41,000  Level Houston Center
04:52AM 30.5514 -96.6906 101° East 460 529 41,000  Level Houston Center
04:53AM 30.5275 -96.5450 101° East 457 526 41,000  Level Houston Center
04:54AM 30.5033 -96.3969 101° East 462 532 41,000  Level Houston Center
04:55AM 30.4836 -96.2739 101° East 464 534 41,000  Level Houston Center
04:56AM 30.4592 -96.1269 101° East 462 532 41,000  Level Houston Center
04:57AM 30.4297 -95.9636 102° East 459 528 41,000  Level Houston Center
04:58AM 30.4058 -95.8181 101° East 459 528 41,000  Level Houston Center
04:59AM 30.3800 -95.6739 102° East 457 526 41,000  Level Houston Center
05:00AM 30.3553 -95.5283 101° East 460 529 41,000  Level Houston Center
05:01AM 30.3306 -95.3831 101° East 459 528 41,000  Level Houston Center
05:02AM 30.3047 -95.2375 102° East 460 529 41,000  Level Houston Center
05:03AM 30.2800 -95.0931 101° East 456 525 41,000  Level Houston Center
05:04AM 30.2553 -94.9483 101° East 457 526 41,000  Level Houston Center
05:05AM 30.2292 -94.8050 102° East 454 522 41,000  Level Houston Center
05:06AM 30.2047 -94.6622 101° East 453 521 41,000  Level Houston Center
05:07AM 30.1783 -94.5197 102° East 453 521 41,000  Level Houston Center
05:08AM 30.1553 -94.4050 103° East 451 519 41,000  Level Houston Center
05:09AM 30.1244 -94.2353 102° East 451 519 41,000  Level Houston Center
05:10AM 30.0975 -94.0950 102° East 452 520 41,000  Level Houston Center
05:11AM 30.0719 -93.9539 102° East 452 520 41,000  Level Houston Center
05:12AM 30.0456 -93.8119 102° East 454 522 41,000  Level Houston Center
05:13AM 30.0181 -93.6703 103° East 455 524 41,000  Level Houston Center
05:14AM 29.9900 -93.5281 103° East 458 527 41,000  Level Houston Center
05:15AM 29.9628 -93.3850 102° East 461 531 41,000  Level Houston Center
05:16AM 29.9364 -93.2433 102° East 458 527 41,000  Level Houston Center
05:17AM 29.9092 -93.1008 102° East 458 527 41,000  Level Houston Center
05:18AM 29.8817 -92.9569 102° East 462 532 41,000  Level Houston Center
05:19AM 29.8533 -92.8136 103° East 462 532 41,000  Level Houston Center
05:20AM 29.8256 -92.6700 103° East 462 532 41,000  Level Houston Center
05:21AM 29.7975 -92.5275 103° East 459 528 41,000  Level Houston Center
05:22AM 29.7692 -92.3856 103° East 457 526 41,000  Level Houston Center
05:23AM 29.7403 -92.2417 103° East 460 529 41,000  Level Houston Center
05:24AM 29.7122 -92.0997 103° East 457 526 41,000  Level Houston Center
05:25AM 29.6839 -91.9567 103° East 460 529 41,000 360 Level Houston Center
05:26AM 29.6542 -91.8153 104° East 457 526 41,800 780 Climbing Houston Center
05:27AM 29.6272 -91.6828 103° East 449 517 42,600 720 Climbing Houston Center
05:28AM 29.6003 -91.5467 103° East 441 507 43,300 720 Climbing Houston Center
05:29AM 29.5722 -91.4131 104° East 433 498 44,100 720 Climbing Houston Center
05:30AM 29.5400 -91.2550 103° East 425 489 44,800 420 Climbing Houston Center
05:31AM 29.5122 -91.1239 104° East 425 489 45,000 60 Climbing Houston Center
05:32AM 29.4831 -90.9922 104° East 427 491 45,000  Level Houston Center
05:33AM 29.4556 -90.8572 103° East 435 501 45,000  Level Houston Center
05:34AM 29.4267 -90.7228 104° East 436 502 45,000  Level Houston Center
05:35AM 29.3981 -90.5881 104° East 436 502 45,000  Level Houston Center
05:36AM 29.3689 -90.4539 104° East 436 502 45,000  Level Houston Center
05:37AM 29.3397 -90.3206 104° East 435 501 45,000  Level Houston Center
05:38AM 29.3103 -90.1853 104° East 437 503 45,000  Level Houston Center
05:39AM 29.2811 -90.0489 104° East 439 505 45,000  Level Houston Center
05:40AM 29.2503 -89.9117 104° East 444 511 45,000  Level Houston Center
05:41AM 29.2203 -89.7747 104° East 445 512 45,000  Level Houston Center
05:42AM 29.1906 -89.6386 104° East 445 512 45,000  Level Houston Center
05:43AM 29.1600 -89.5022 104° East 445 512 45,000  Level Houston Center
05:44AM 29.1300 -89.3631 104° East 449 517 45,000  Level Houston Center
05:45AM 29.0989 -89.2247 104° East 450 518 45,000  Level Houston Center
05:46AM 29.0681 -89.0886 104° East 446 513 45,000  Level Houston Center
05:47AM 29.0367 -88.9528 105° East 445 512 45,000  Level Houston Center
05:48AM 29.0058 -88.8150 104° East 447 514 45,000  Level Houston Center
05:49AM 28.9733 -88.6792 105° East 446 513 45,000  Level Houston Center
05:50AM 28.9425 -88.5408 104° East 449 517 45,000  Level Houston Center
05:51AM 28.9100 -88.4036 105° East 450 518 45,000  Level Houston Center
05:52AM 28.8781 -88.2644 105° East 452 520 45,000  Level Houston Center
05:53AM 28.8464 -88.1278 105° East 450 518 45,000  Level Houston Center
05:54AM 28.8125 -87.9828 105° East 452 520 45,000  Level Houston Center
05:55AM 28.7792 -87.8444 105° East 454 522 45,000  Level Houston Center
05:56AM 28.7467 -87.7050 105° East 456 525 45,000  Level Houston Center
05:57AM 28.7133 -87.5650 105° East 458 527 45,000  Level Houston Center
05:58AM 28.6794 -87.4264 106° East 457 526 45,000  Level Houston Center
05:59AM 28.6456 -87.2864 105° East 458 527 45,000  Level Houston Center
06:00AM 28.6119 -87.1464 105° East 460 529 45,000  Level Houston Center
06:01AM 28.5769 -87.0061 106° East 462 532 45,000  Level Houston Center
06:02AM 28.5433 -86.8650 105° East 463 533 45,000  Level Houston Center
06:03AM 28.5086 -86.7256 106° East 461 531 45,000  Level Houston Center
06:04AM 28.4594 -86.5308 106° East 460 529 45,000  Level Jacksonville Center
06:05AM 28.4256 -86.3975 106° East 468 539 45,000  Level Jacksonville Center
06:06AM 28.3917 -86.2572 105° East 475 547 45,000  Level Jacksonville Center
06:09AM 28.3142 -85.9539 106° East 478 550 45,000  Level Miami Center
06:10AM 28.2744 -85.7931 106° East 464 534 45,000  Level Miami Center
06:11AM 28.2481 -85.6828 105° East 458 527 45,000  Level Miami Center
06:12AM 28.2039 -85.5194 107° East 453 521 45,000  Level Miami Center
06:13AM 28.1836 -85.4378 106° East 453 521 45,000  Level Miami Center
06:14AM 28.1347 -85.2461 106° East 453 521 45,000  Level Miami Center
06:15AM 28.1008 -85.1097 106° East 447 514 45,000  Level Miami Center
06:16AM 28.0500 -84.9417 109° East 452 520 45,000  Level Miami Center
06:17AM 28.0139 -84.8075 107° East 452 520 45,000  Level Miami Center
06:18AM 27.9733 -84.6686 108° East 452 520 45,000  Level Miami Center
06:19AM 27.9319 -84.5483 111° Southeast 452 520 45,000  Level Miami Center
06:20AM 27.8978 -84.4100 106° East 452 520 45,000  Level Miami Center
06:21AM 27.8589 -84.2736 108° East 452 520 45,000  Level Miami Center
06:22AM 27.8222 -84.1375 107° East 452 520 45,000  Level Miami Center
06:23AM 27.7969 -84.0564 109° East 452 520 45,000  Level Miami Center
06:24AM 27.7375 -83.8675 110° East 452 520 45,000  Level Miami Center
06:25AM 27.7003 -83.7292 107° East 452 520 45,000 -240 Level Miami Center
06:26AM 27.6581 -83.5675 106° East 452 520 44,600 -780 Descending Miami Center
06:27AM 27.6164 -83.4292 109° East 452 520 43,300 -1,440 Descending Miami Center
06:28AM 27.5675 -83.2625 108° East 452 520 41,500 -1,500 Descending Miami Center
06:29AM 27.5275 -83.1269 108° East 452 520 40,000 -1,500 Descending Miami Center
06:30AM 27.4878 -82.9892 108° East 452 520 38,500 -1,620 Descending Miami Center
06:31AM 27.4417 -82.8394 109° East 452 520 36,800 -1,620 Descending Miami Center
06:32AM 27.3997 -82.6969 108° East 457 526 35,300 -1,500 Descending Miami Center
06:33AM 27.3594 -82.5572 108° East 469 540 33,900 -1,440 Descending Miami Center
06:34AM 27.3206 -82.4289 109° East 475 547 32,500 -1,560 Descending Miami Center
06:35AM 27.2722 -82.2750 109° East 475 547 30,800 -1,620 Descending Miami Center
06:36AM 27.2314 -82.1306 108° East 475 547 29,300 -1,500 Descending Miami Center
06:37AM 27.1864 -81.9908 110° East 475 547 27,900 -1,500 Descending Miami Center
06:38AM 27.1511 -81.8703 108° East 463 533 26,400 -1,500 Descending Miami Center
06:39AM 27.1117 -81.7381 109° East 453 521 25,000 -1,260 Descending Miami Center
06:40AM 27.0661 -81.5986 110° East 448 516 23,900 -1,500 Descending Miami Center
06:41AM 27.0286 -81.4711 108° East 438 504 22,000 -2,100 Descending Miami Center
06:42AM 26.9928 -81.3531 109° East 416 479 19,700 -2,460 Descending Miami Center
06:43AM 26.9567 -81.2331 109° East 410 472 17,100 -2,460 Descending Miami Center
06:44AM 26.9206 -81.1153 109° East 405 466 14,800 -2,160 Descending Miami Center
06:45AM 26.8861 -81.0069 110° East 388 447 12,800 -2,100 Descending Miami Center
06:46AM 26.8536 -80.9033 109° East 369 425 10,700 -1,440 Descending Miami Center
06:47AM 26.8328 -80.8233 106° East 317 365 10,000 -720 Descending Miami Center
06:48AM 26.8044 -80.7083 105° East 294 338 9,200 -960 Descending Miami Center
06:49AM 26.7839 -80.6194 105° East 289 333 8,000 -1,200 Descending Miami Center
06:51AM 26.7592 -80.5186 105° East 283 326 6,600 -1,260 Descending Miami Center
06:52AM 26.7383 -80.4342 105° East 277 319 5,300 -1,200 Descending Miami Center
06:53AM 26.7194 -80.3544 105° East 272 313 4,200 -1,200 Descending Miami Center
06:54AM 26.7003 -80.2772 106° East 260 299 2,900 -1,200 Descending Miami Center
06:55AM 26.6856 -80.2025 102° East 255 293 1,900 -1,020 Descending Miami Center
06:57AM 26.6832 -80.0956 50° Northeast  Level Estimated
07:04AM 26.6832 -80.0956 50° Northeast  Level Estimated
07:05AM 26.6832 -80.0956 50° Northeast  Level Estimated